createdAt,value
2024-02-08T00:00:33.708Z,29.05
2024-02-08T00:03:00.679Z,29.05
2024-02-08T00:05:28.112Z,28.85
2024-02-08T00:07:55.317Z,29.02
2024-02-08T00:10:23.764Z,27.83
2024-02-08T00:12:51.210Z,29.20
2024-02-08T00:15:18.366Z,29.75
2024-02-08T00:17:48.542Z,28.40
2024-02-08T00:20:17.141Z,28.38
2024-02-08T00:22:44.966Z,28.58
2024-02-08T00:25:11.858Z,27.63
2024-02-08T00:27:38.695Z,29.05
2024-02-08T00:30:06.489Z,27.90
2024-02-08T00:32:33.409Z,29.17
2024-02-08T00:35:06.834Z,28.55
2024-02-08T00:37:35.855Z,28.42
2024-02-08T00:40:02.740Z,27.60
2024-02-08T00:42:29.646Z,27.70
2024-02-08T00:44:56.462Z,30.80
2024-02-08T00:47:25.853Z,26.30
2024-02-08T00:49:52.806Z,28.92
2024-02-08T00:52:19.880Z,26.85
2024-02-08T00:54:46.939Z,27.38
2024-02-08T00:57:13.870Z,26.95
2024-02-08T00:59:41.105Z,26.60
2024-02-08T01:02:08.552Z,27.27
2024-02-08T01:04:35.785Z,26.92
2024-02-08T01:07:03.523Z,30.15
2024-02-08T01:09:30.396Z,28.10
2024-02-08T01:11:57.417Z,27.02
2024-02-08T01:14:24.264Z,29.35
2024-02-08T01:16:52.695Z,28.10
2024-02-08T01:19:26.715Z,28.73
2024-02-08T01:21:54.485Z,28.05
2024-02-08T01:24:21.432Z,27.95
2024-02-08T01:26:52.510Z,28.33
2024-02-08T01:29:25.412Z,27.00
2024-02-08T01:31:53.347Z,27.13
2024-02-08T01:34:20.572Z,26.77
2024-02-08T01:36:54.837Z,26.73
2024-02-08T01:39:25.095Z,26.42
2024-02-08T01:41:52.845Z,28.45
2024-02-08T01:44:22.637Z,27.20
2024-02-08T01:46:51.508Z,27.13
2024-02-08T01:49:26.086Z,28.10
2024-02-08T01:52:01.750Z,27.85
2024-02-08T01:54:30.547Z,26.80
2024-02-08T01:57:02.678Z,27.33
2024-02-08T01:59:29.842Z,26.63
2024-02-08T02:01:59.123Z,28.13
2024-02-08T02:04:26.089Z,28.15
2024-02-08T02:06:54.796Z,28.13
2024-02-08T02:09:28.754Z,27.50
2024-02-08T02:12:02.584Z,26.67
2024-02-08T02:14:31.560Z,26.80
2024-02-08T02:17:14.758Z,28.33
2024-02-08T02:19:42.672Z,29.10
2024-02-08T02:22:12.170Z,27.98
2024-02-08T02:24:41.738Z,28.48
2024-02-08T02:27:11.317Z,27.77
2024-02-08T02:32:12.530Z,28.42
2024-02-08T02:34:43.826Z,27.67
2024-02-08T02:37:12.577Z,30.17
2024-02-08T02:39:40.275Z,27.40
2024-02-08T02:42:08.065Z,28.67
2024-02-08T02:44:36.410Z,28.63
2024-02-08T02:47:05.084Z,27.65
2024-02-08T02:49:37.714Z,28.77
2024-02-08T02:52:09.109Z,29.00
2024-02-08T02:54:37.082Z,30.48
2024-02-08T02:57:04.501Z,28.83
2024-02-08T02:59:31.809Z,30.20
2024-02-08T03:01:59.199Z,29.38
2024-02-08T03:04:29.223Z,31.85
2024-02-08T03:06:56.598Z,27.17
2024-02-08T03:09:29.524Z,30.17
2024-02-08T03:12:00.466Z,29.30
2024-02-08T03:14:28.030Z,28.27
2024-02-08T03:17:01.879Z,27.70
2024-02-08T03:19:30.365Z,26.05
2024-02-08T03:21:57.515Z,27.38
2024-02-08T03:24:25.614Z,28.75
2024-02-08T03:26:52.944Z,28.55
2024-02-08T03:29:22.869Z,28.40
2024-02-08T03:31:53.659Z,26.88
2024-02-08T03:34:21.247Z,26.77
2024-02-08T03:36:48.281Z,28.33
2024-02-08T03:39:26.877Z,28.65
2024-02-08T03:42:01.145Z,26.23
2024-02-08T03:44:31.554Z,29.00
2024-02-08T03:47:08.965Z,30.63
2024-02-08T03:49:36.612Z,29.45
2024-02-08T03:52:04.564Z,29.38
2024-02-08T03:54:32.077Z,28.83
2024-02-08T03:57:07.422Z,26.48
2024-02-08T03:59:42.078Z,26.70
2024-02-08T04:02:13.215Z,27.50
2024-02-08T04:05:00.162Z,29.17
2024-02-08T04:07:46.315Z,27.77
2024-02-08T04:10:32.335Z,26.33
2024-02-08T04:13:17.797Z,25.65
2024-02-08T04:16:03.552Z,26.77
2024-02-08T04:18:49.078Z,27.77
2024-02-08T04:21:34.740Z,27.85
2024-02-08T04:24:20.340Z,28.00
2024-02-08T04:27:05.992Z,28.02
2024-02-08T04:29:51.458Z,30.08
2024-02-08T04:32:36.854Z,29.27
2024-02-08T04:35:23.206Z,31.02
2024-02-08T04:38:09.048Z,29.48
2024-02-08T04:40:54.645Z,28.48
2024-02-08T04:43:40.204Z,29.20
2024-02-08T04:46:25.758Z,28.85
2024-02-08T04:49:11.663Z,29.65
2024-02-08T04:51:57.295Z,27.38
2024-02-08T04:54:24.218Z,30.63
2024-02-08T04:56:51.138Z,27.92
2024-02-08T04:59:23.625Z,30.05
2024-02-08T05:01:51.724Z,28.23
2024-02-08T05:04:22.048Z,27.80
2024-02-08T05:06:51.125Z,30.05
2024-02-08T05:09:21.612Z,31.33
2024-02-08T05:11:51.541Z,30.55
2024-02-08T05:14:22.165Z,28.73
2024-02-08T05:16:56.238Z,28.95
2024-02-08T05:19:29.724Z,30.40
2024-02-08T05:22:03.684Z,29.10
2024-02-08T05:24:32.395Z,27.98
2024-02-08T05:27:00.921Z,29.17
2024-02-08T05:29:29.736Z,26.17
2024-02-08T05:31:56.982Z,24.38
2024-02-08T05:34:26.757Z,23.27
2024-02-08T05:36:56.888Z,21.85
2024-02-08T05:39:29.487Z,22.30
2024-02-08T05:41:58.129Z,23.52
2024-02-08T05:47:10.517Z,21.73
2024-02-08T05:49:39.569Z,22.92
2024-02-08T05:52:07.960Z,24.83
2024-02-08T05:54:41.835Z,21.13
2024-02-08T05:57:12.637Z,23.05
2024-02-08T05:59:41.409Z,23.35
2024-02-08T06:02:16.882Z,22.80
2024-02-08T06:04:52.570Z,24.95
2024-02-08T06:07:21.474Z,23.05
2024-02-08T06:09:49.885Z,22.88
2024-02-08T06:12:46.687Z,21.17
2024-02-08T06:15:37.308Z,24.25
2024-02-08T06:18:07.177Z,24.67
2024-02-08T06:20:37.185Z,25.33
2024-02-08T06:23:18.238Z,24.02
2024-02-08T06:31:00.187Z,22.17
2024-02-08T06:36:00.378Z,20.95
2024-02-08T06:38:42.521Z,21.35
2024-02-08T06:41:11.101Z,21.10
2024-02-08T06:43:58.445Z,24.48
2024-02-08T06:46:49.487Z,23.67
2024-02-08T06:49:55.410Z,24.92
2024-02-08T06:52:41.211Z,22.38
2024-02-08T06:55:27.072Z,21.70
2024-02-08T06:58:13.001Z,23.48
2024-02-08T07:00:58.407Z,20.83
2024-02-08T07:03:43.901Z,22.08
2024-02-08T07:06:29.413Z,22.25
2024-02-08T07:09:15.027Z,21.73
2024-02-08T07:12:00.499Z,19.95
2024-02-08T07:14:47.125Z,22.30
2024-02-08T07:17:32.488Z,23.05
2024-02-08T07:20:18.143Z,21.88
2024-02-08T07:23:03.822Z,25.33
2024-02-08T07:25:49.214Z,23.40
2024-02-08T07:28:34.691Z,23.27
2024-02-08T07:31:20.212Z,24.23
2024-02-08T07:34:07.466Z,24.02
2024-02-08T07:36:53.114Z,23.40
2024-02-08T07:39:31.408Z,22.55
2024-02-08T07:41:58.615Z,23.30
2024-02-08T07:44:34.023Z,22.63
2024-02-08T07:47:05.142Z,22.63
2024-02-08T07:49:45.714Z,23.90
2024-02-08T07:52:20.691Z,25.60
2024-02-08T07:54:57.886Z,25.00
2024-02-08T07:57:32.800Z,27.80
2024-02-08T08:00:01.418Z,25.40
2024-02-08T08:02:38.613Z,23.95
2024-02-08T08:05:16.265Z,23.17
2024-02-08T08:07:45.916Z,23.55
2024-02-08T08:12:39.917Z,24.85
2024-02-08T08:15:10.301Z,26.08
2024-02-08T08:17:44.888Z,24.65
2024-02-08T08:20:35.412Z,23.13
2024-02-08T08:23:08.639Z,23.27
2024-02-08T08:25:55.393Z,22.80
2024-02-08T08:28:31.833Z,23.55
2024-02-08T08:31:21.894Z,22.77
2024-02-08T08:34:01.569Z,23.27
2024-02-08T08:36:30.077Z,22.67
2024-02-08T08:39:18.253Z,22.85
2024-02-08T08:41:48.159Z,23.33
2024-02-08T08:44:16.699Z,22.17
2024-02-08T08:46:46.067Z,24.23
2024-02-08T08:49:16.215Z,24.73
2024-02-08T08:51:44.739Z,23.38
2024-02-08T08:54:26.767Z,22.90
2024-02-08T08:56:58.317Z,23.35
2024-02-08T08:59:27.539Z,23.75
2024-02-08T09:01:55.151Z,24.13
2024-02-08T09:04:34.224Z,23.95
2024-02-08T09:07:12.467Z,24.10
2024-02-08T09:09:58.648Z,21.13
2024-02-08T09:12:39.449Z,20.98
2024-02-08T09:15:27.478Z,18.48
2024-02-08T09:18:10.454Z,20.65
2024-02-08T09:20:39.060Z,19.02
2024-02-08T09:23:15.781Z,19.50
2024-02-08T09:25:47.508Z,21.02
2024-02-08T09:28:26.231Z,19.20
2024-02-08T09:31:01.674Z,18.95
2024-02-08T09:33:31.976Z,19.02
2024-02-08T09:36:02.847Z,18.73
2024-02-08T09:38:44.026Z,19.38
2024-02-08T09:41:25.101Z,18.42
2024-02-08T09:43:58.616Z,18.08
2024-02-08T09:46:32.290Z,16.30
2024-02-08T09:49:18.566Z,16.35
2024-02-08T09:51:54.703Z,16.88
2024-02-08T09:54:32.149Z,17.83
2024-02-08T09:57:23.402Z,17.23
2024-02-08T10:00:02.672Z,15.85
2024-02-08T10:02:54.325Z,16.20
2024-02-08T10:05:41.606Z,15.85
2024-02-08T10:08:10.836Z,14.85
2024-02-08T10:10:46.054Z,15.55
2024-02-08T10:13:28.909Z,15.38
2024-02-08T10:15:57.842Z,14.73
2024-02-08T10:18:35.233Z,15.00
2024-02-08T10:21:14.118Z,14.60
2024-02-08T10:24:15.452Z,14.75
2024-02-08T10:26:47.458Z,13.70
2024-02-08T10:29:17.306Z,14.70
2024-02-08T10:31:54.391Z,13.52
2024-02-08T10:34:35.511Z,14.23
2024-02-08T10:37:08.087Z,13.07
2024-02-08T10:39:48.375Z,12.63
2024-02-08T10:42:16.005Z,13.27
2024-02-08T10:44:45.754Z,14.10
2024-02-08T10:47:15.504Z,13.27
2024-02-08T10:49:51.602Z,13.23
2024-02-08T10:52:23.821Z,11.93
2024-02-08T10:54:55.443Z,12.00
2024-02-08T10:57:38.146Z,11.82
2024-02-08T11:00:23.991Z,12.77
2024-02-08T11:03:01.723Z,11.23
2024-02-08T11:05:30.320Z,10.85
2024-02-08T11:07:59.345Z,10.70
2024-02-08T11:13:11.774Z,10.35
2024-02-08T11:15:50.382Z,10.77
2024-02-08T11:18:37.181Z,10.75
2024-02-08T11:21:06.439Z,13.15
2024-02-08T11:23:46.679Z,13.93
2024-02-08T11:26:14.225Z,14.90
2024-02-08T11:28:46.015Z,13.00
2024-02-08T11:31:19.713Z,14.00
2024-02-08T11:33:47.577Z,12.88
2024-02-08T11:36:17.478Z,14.75
2024-02-08T11:38:55.078Z,13.57
2024-02-08T11:41:26.930Z,13.23
2024-02-08T11:44:06.807Z,13.98
2024-02-08T11:46:47.780Z,14.40
2024-02-08T11:49:33.382Z,13.80
2024-02-08T11:52:12.438Z,14.20
2024-02-08T11:54:40.397Z,14.20
2024-02-08T11:57:13.475Z,14.32
2024-02-08T11:59:46.287Z,13.85
2024-02-08T12:02:17.826Z,13.90
2024-02-08T12:04:45.427Z,14.43
2024-02-08T12:07:16.402Z,13.60
2024-02-08T12:09:43.362Z,13.63
2024-02-08T12:12:10.369Z,14.20
2024-02-08T12:14:40.589Z,14.63
2024-02-08T12:17:08.055Z,14.48
2024-02-08T12:19:35.693Z,13.77
2024-02-08T12:22:06.484Z,13.07
2024-02-08T12:24:36.233Z,13.05
2024-02-08T12:27:16.218Z,15.02
2024-02-08T12:29:51.994Z,13.70
2024-02-08T12:32:19.755Z,12.80
2024-02-08T12:34:49.704Z,12.68
2024-02-08T12:37:20.638Z,15.05
2024-02-08T12:39:50.762Z,14.18
2024-02-08T12:42:19.717Z,15.85
2024-02-08T12:44:50.696Z,15.40
2024-02-08T12:47:19.287Z,14.18
2024-02-08T12:49:48.637Z,15.32
2024-02-08T12:52:18.333Z,14.85
2024-02-08T12:54:55.244Z,14.32
2024-02-08T12:57:25.142Z,14.25
2024-02-08T13:00:08.451Z,14.95
2024-02-08T13:02:35.810Z,13.30
2024-02-08T13:05:04.227Z,13.38
2024-02-08T13:07:33.245Z,14.82
2024-02-08T13:10:15.757Z,13.55
2024-02-08T13:12:43.510Z,14.85
2024-02-08T13:15:11.749Z,14.48
2024-02-08T13:17:39.394Z,15.52
2024-02-08T13:20:13.923Z,14.02
2024-02-08T13:22:46.205Z,12.80
2024-02-08T13:25:13.852Z,12.93
2024-02-08T13:27:42.141Z,12.48
2024-02-08T13:30:18.727Z,12.63
2024-02-08T13:32:53.620Z,13.05
2024-02-08T13:35:24.274Z,12.73
2024-02-08T13:37:54.231Z,13.05
2024-02-08T13:40:24.204Z,12.30
2024-02-08T13:42:57.638Z,13.18
2024-02-08T13:45:27.685Z,13.48
2024-02-08T13:47:58.993Z,13.45
2024-02-08T13:50:31.729Z,14.65
2024-02-08T13:53:02.442Z,13.07
2024-02-08T13:58:06.770Z,14.70
2024-02-08T14:00:33.769Z,13.75
2024-02-08T14:03:02.108Z,15.45
2024-02-08T14:05:31.412Z,12.95
2024-02-08T14:07:58.599Z,16.77
2024-02-08T14:10:32.792Z,14.98
2024-02-08T14:13:01.233Z,12.85
2024-02-08T14:15:32.091Z,15.95
2024-02-08T14:18:11.790Z,15.65
2024-02-08T14:20:53.951Z,13.68
2024-02-08T14:23:42.343Z,15.52
2024-02-08T14:26:20.708Z,13.50
2024-02-08T14:28:48.602Z,12.98
2024-02-08T14:31:17.441Z,12.95
2024-02-08T14:33:48.573Z,12.63
2024-02-08T14:36:19.493Z,12.18
2024-02-08T14:38:47.423Z,14.23
2024-02-08T14:41:27.990Z,12.90
2024-02-08T14:44:07.654Z,13.65
2024-02-08T14:46:36.896Z,13.35
2024-02-08T14:49:18.917Z,13.43
2024-02-08T14:51:49.762Z,13.20
2024-02-08T14:54:20.454Z,14.60
2024-02-08T14:57:05.801Z,14.27
2024-02-08T14:59:46.536Z,14.20
2024-02-08T15:02:20.590Z,13.23
2024-02-08T15:04:54.860Z,13.68
2024-02-08T15:07:41.212Z,12.52
2024-02-08T15:10:11.258Z,12.80
2024-02-08T15:12:53.102Z,12.02
2024-02-08T15:18:12.615Z,12.60
2024-02-08T15:20:46.491Z,13.48
2024-02-08T15:23:33.440Z,13.63
2024-02-08T15:26:04.253Z,12.60
2024-02-08T15:28:43.791Z,12.50
2024-02-08T15:31:37.241Z,12.90
2024-02-08T15:34:16.716Z,18.80
2024-02-08T15:37:03.319Z,13.70
2024-02-08T15:39:36.498Z,15.80
2024-02-08T15:42:10.690Z,14.32
2024-02-08T15:44:47.923Z,15.95
2024-02-08T15:47:16.821Z,16.02
2024-02-08T15:49:44.848Z,15.07
2024-02-08T15:52:16.649Z,15.68
2024-02-08T15:54:46.403Z,15.98
2024-02-08T15:57:15.368Z,16.38
2024-02-08T15:59:46.266Z,14.48
2024-02-08T16:02:19.343Z,15.32
2024-02-08T16:04:52.068Z,15.63
2024-02-08T16:07:29.357Z,14.90
2024-02-08T16:09:59.875Z,15.32
2024-02-08T16:12:33.266Z,16.85
2024-02-08T16:15:08.791Z,16.23
2024-02-08T16:17:36.473Z,16.25
2024-02-08T16:20:17.866Z,17.05
2024-02-08T16:23:03.871Z,16.73
2024-02-08T16:25:46.618Z,16.35
2024-02-08T16:28:19.134Z,17.02
2024-02-08T16:31:14.017Z,18.23
2024-02-08T16:33:44.526Z,20.23
2024-02-08T16:36:30.726Z,21.17
2024-02-08T16:39:30.136Z,19.17
2024-02-08T16:41:57.275Z,20.75
2024-02-08T16:44:52.171Z,23.27
2024-02-08T16:47:29.498Z,25.13
2024-02-08T16:50:00.377Z,24.90
2024-02-08T16:52:40.555Z,34.47
2024-02-08T16:55:14.942Z,23.42
2024-02-08T16:57:43.433Z,20.40
2024-02-08T17:00:29.836Z,20.15
2024-02-08T17:03:06.578Z,19.38
2024-02-08T17:05:52.574Z,22.35
2024-02-08T17:08:22.085Z,86.18
2024-02-08T17:11:03.975Z,42.42
2024-02-08T17:13:45.911Z,24.98
2024-02-08T17:16:34.444Z,20.27
2024-02-08T17:19:30.966Z,19.75
2024-02-08T17:22:20.193Z,25.08
2024-02-08T17:25:05.014Z,17.75
2024-02-08T17:27:32.569Z,19.85
2024-02-08T17:30:18.012Z,21.13
2024-02-08T17:32:45.091Z,18.05
2024-02-08T17:35:17.007Z,19.73
2024-02-08T17:37:50.219Z,18.67
2024-02-08T17:40:20.734Z,17.58
2024-02-08T17:42:48.308Z,18.23
2024-02-08T17:45:17.601Z,19.60
2024-02-08T17:47:45.171Z,18.30
2024-02-08T17:50:14.400Z,19.00
2024-02-08T17:52:50.823Z,19.13
2024-02-08T17:55:23.009Z,19.50
2024-02-08T17:57:57.445Z,20.40
2024-02-08T18:00:24.904Z,17.88
2024-02-08T18:02:53.322Z,18.95
2024-02-08T18:05:29.141Z,18.55
2024-02-08T18:08:00.689Z,19.55
2024-02-08T18:10:39.060Z,17.35
2024-02-08T18:13:10.469Z,18.95
2024-02-08T18:15:38.413Z,16.83
2024-02-08T18:18:08.830Z,16.67
2024-02-08T18:20:42.892Z,17.83
2024-02-08T18:23:13.402Z,18.45
2024-02-08T18:25:46.637Z,19.48
2024-02-08T18:28:19.459Z,20.20
2024-02-08T18:30:56.840Z,20.20
2024-02-08T18:33:28.142Z,20.20
2024-02-08T18:36:01.168Z,21.42
2024-02-08T18:38:29.952Z,20.38
2024-02-08T18:40:59.595Z,20.23
2024-02-08T18:43:28.328Z,20.38
2024-02-08T18:45:57.319Z,19.17
2024-02-08T18:48:25.038Z,18.63
2024-02-08T19:03:21.759Z,20.08
2024-02-08T19:05:50.347Z,19.63
2024-02-08T19:08:22.612Z,25.63
2024-02-08T19:10:58.770Z,23.00
2024-02-08T19:13:32.086Z,23.75
2024-02-08T19:16:12.533Z,21.83
2024-02-08T19:18:52.102Z,21.55
2024-02-08T19:21:29.487Z,22.13
2024-02-08T19:24:04.344Z,19.30
2024-02-08T19:26:36.642Z,18.67
2024-02-08T19:29:09.474Z,19.98
2024-02-08T19:31:42.908Z,20.65
2024-02-08T19:34:18.533Z,20.52
2024-02-08T19:36:59.534Z,18.90
2024-02-08T19:39:29.445Z,18.30
2024-02-08T19:41:59.696Z,18.35
2024-02-08T19:44:27.889Z,16.65
2024-02-08T19:47:13.625Z,18.27
2024-02-08T19:49:44.995Z,18.13
2024-02-08T19:52:22.388Z,17.85
2024-02-08T19:55:00.299Z,18.75
2024-02-08T19:57:36.468Z,19.92
2024-02-08T20:00:04.362Z,22.10
2024-02-08T20:02:33.747Z,21.27
2024-02-08T20:05:02.864Z,23.20
2024-02-08T20:12:28.165Z,25.13
2024-02-08T20:14:57.958Z,24.95
2024-02-08T20:17:26.821Z,27.00
2024-02-08T20:19:58.931Z,24.77
2024-02-08T20:22:29.723Z,24.75
2024-02-08T20:24:59.603Z,24.02
2024-02-08T20:27:29.880Z,27.40
2024-02-08T20:30:00.474Z,26.95
2024-02-08T20:32:30.077Z,27.98
2024-02-08T20:34:58.448Z,27.77
2024-02-08T20:37:28.873Z,27.73
2024-02-08T20:39:58.393Z,28.90
2024-02-08T20:42:30.104Z,27.95
2024-02-08T20:44:59.496Z,30.00
2024-02-08T20:47:26.430Z,32.78
2024-02-08T20:49:56.640Z,31.83
2024-02-08T20:52:23.689Z,35.55
2024-02-08T20:54:55.015Z,34.22
2024-02-08T20:57:24.850Z,36.67
2024-02-08T20:59:56.102Z,38.70
2024-02-08T21:02:25.566Z,39.92
2024-02-08T21:07:21.795Z,41.13
2024-02-08T21:09:52.473Z,42.00
2024-02-08T21:12:21.245Z,41.67
2024-02-08T21:14:48.463Z,42.90
2024-02-08T21:17:16.706Z,43.78
2024-02-08T21:19:48.412Z,46.05
2024-02-08T21:22:16.816Z,46.42
2024-02-08T21:24:44.224Z,44.78
2024-02-08T21:27:20.260Z,48.35
2024-02-08T21:29:47.915Z,48.17
2024-02-08T21:32:15.001Z,48.70
2024-02-08T21:34:42.130Z,51.45
2024-02-08T21:37:09.697Z,52.40
2024-02-08T21:39:46.311Z,51.25
2024-02-08T21:42:16.257Z,50.38
2024-02-08T21:44:43.331Z,50.33
2024-02-08T21:47:10.671Z,51.85
2024-02-08T21:49:39.424Z,49.10
2024-02-08T21:52:08.754Z,50.22
2024-02-08T21:54:38.330Z,53.60
2024-02-08T21:57:05.572Z,52.47
2024-02-08T21:59:38.838Z,54.20
2024-02-08T22:02:09.548Z,56.38
2024-02-08T22:04:39.022Z,54.42
2024-02-08T22:07:09.052Z,54.80
2024-02-08T22:09:36.272Z,53.40
2024-02-08T22:12:05.142Z,55.92
2024-02-08T22:14:32.306Z,53.83
2024-02-08T22:17:09.271Z,53.55
2024-02-08T22:19:44.760Z,53.90
2024-02-08T22:22:16.741Z,59.60
2024-02-08T22:24:43.823Z,55.40
2024-02-08T22:27:11.169Z,57.65
2024-02-08T22:29:39.861Z,56.63
2024-02-08T22:32:07.982Z,55.33
2024-02-08T22:34:35.504Z,57.25
2024-02-08T22:37:05.794Z,57.08
2024-02-08T22:39:33.074Z,58.58
2024-02-08T22:42:00.810Z,60.97
2024-02-08T22:44:31.014Z,58.20
2024-02-08T22:46:58.019Z,61.55
2024-02-08T22:49:26.640Z,60.67
2024-02-08T22:51:54.091Z,63.53
2024-02-08T22:54:25.450Z,61.88
2024-02-08T22:56:52.780Z,62.42
2024-02-08T22:59:23.221Z,63.00
2024-02-08T23:01:54.259Z,63.45
2024-02-08T23:04:21.958Z,63.25
2024-02-08T23:06:49.468Z,64.90
2024-02-08T23:09:20.199Z,65.57
2024-02-08T23:11:50.972Z,68.00
2024-02-08T23:14:20.149Z,66.40
2024-02-08T23:19:20.036Z,61.42
2024-02-08T23:21:52.533Z,66.68
2024-02-08T23:24:24.041Z,62.83
2024-02-08T23:26:51.148Z,71.35
2024-02-08T23:29:18.112Z,67.15
2024-02-08T23:31:45.168Z,66.32
2024-02-08T23:34:13.035Z,68.57
2024-02-08T23:36:40.291Z,67.47
2024-02-08T23:39:08.870Z,67.35
2024-02-08T23:41:37.590Z,67.65
2024-02-08T23:44:04.720Z,68.07
2024-02-08T23:46:31.784Z,70.32
2024-02-08T23:48:59.181Z,66.07
2024-02-08T23:51:26.371Z,70.45
2024-02-08T23:53:55.425Z,71.50
2024-02-08T23:56:24.716Z,69.68
2024-02-08T23:58:52.716Z,69.47
